sensor_id;sensor_type;location;lat;lon;timestamp;P1;durP1;ratioP1;P2;durP2;ratioP2
56043;SDS011;41912;51.022;3.664;2023-05-21T00:01:38;6.05;;;3.80;;
56043;SDS011;41912;51.022;3.664;2023-05-21T00:04:04;7.90;;;4.07;;
56043;SDS011;41912;51.022;3.664;2023-05-21T00:06:32;11.13;;;3.55;;
56043;SDS011;41912;51.022;3.664;2023-05-21T00:09:00;9.55;;;3.95;;
56043;SDS011;41912;51.022;3.664;2023-05-21T00:11:29;5.80;;;4.13;;
56043;SDS011;41912;51.022;3.664;2023-05-21T00:13:55;8.30;;;4.10;;
56043;SDS011;41912;51.022;3.664;2023-05-21T00:16:21;8.68;;;4.10;;
56043;SDS011;41912;51.022;3.664;2023-05-21T00:18:47;7.75;;;4.43;;
56043;SDS011;41912;51.022;3.664;2023-05-21T00:21:18;9.73;;;4.55;;
56043;SDS011;41912;51.022;3.664;2023-05-21T00:23:47;9.00;;;3.75;;
56043;SDS011;41912;51.022;3.664;2023-05-21T00:26:14;12.18;;;4.75;;
56043;SDS011;41912;51.022;3.664;2023-05-21T00:28:40;8.85;;;4.50;;
56043;SDS011;41912;51.022;3.664;2023-05-21T00:31:05;8.13;;;3.90;;
56043;SDS011;41912;51.022;3.664;2023-05-21T00:33:31;8.98;;;5.47;;
56043;SDS011;41912;51.022;3.664;2023-05-21T00:35:56;10.00;;;4.75;;
56043;SDS011;41912;51.022;3.664;2023-05-21T00:38:22;8.30;;;4.80;;
56043;SDS011;41912;51.022;3.664;2023-05-21T00:40:48;10.48;;;5.10;;
56043;SDS011;41912;51.022;3.664;2023-05-21T00:43:14;7.57;;;4.68;;
56043;SDS011;41912;51.022;3.664;2023-05-21T00:45:40;8.52;;;5.00;;
56043;SDS011;41912;51.022;3.664;2023-05-21T00:48:08;8.25;;;5.07;;
56043;SDS011;41912;51.022;3.664;2023-05-21T00:50:35;8.07;;;5.00;;
56043;SDS011;41912;51.022;3.664;2023-05-21T00:53:03;8.27;;;4.93;;
56043;SDS011;41912;51.022;3.664;2023-05-21T00:55:34;10.02;;;4.72;;
56043;SDS011;41912;51.022;3.664;2023-05-21T00:58:01;8.55;;;5.28;;
56043;SDS011;41912;51.022;3.664;2023-05-21T01:00:28;10.95;;;5.45;;
56043;SDS011;41912;51.022;3.664;2023-05-21T01:02:57;10.55;;;6.65;;
56043;SDS011;41912;51.022;3.664;2023-05-21T01:05:22;9.40;;;5.75;;
56043;SDS011;41912;51.022;3.664;2023-05-21T01:07:48;12.43;;;5.88;;
56043;SDS011;41912;51.022;3.664;2023-05-21T01:10:14;9.98;;;5.45;;
56043;SDS011;41912;51.022;3.664;2023-05-21T01:12:42;14.90;;;6.47;;
56043;SDS011;41912;51.022;3.664;2023-05-21T01:15:09;15.43;;;5.90;;
56043;SDS011;41912;51.022;3.664;2023-05-21T01:17:35;10.40;;;6.20;;
56043;SDS011;41912;51.022;3.664;2023-05-21T01:20:03;11.30;;;6.20;;
56043;SDS011;41912;51.022;3.664;2023-05-21T01:22:49;8.00;;;5.82;;
56043;SDS011;41912;51.022;3.664;2023-05-21T01:25:20;11.65;;;5.80;;
56043;SDS011;41912;51.022;3.664;2023-05-21T01:27:47;11.10;;;6.05;;
56043;SDS011;41912;51.022;3.664;2023-05-21T01:30:13;9.70;;;6.43;;
56043;SDS011;41912;51.022;3.664;2023-05-21T01:35:16;11.10;;;6.53;;
56043;SDS011;41912;51.022;3.664;2023-05-21T01:37:54;9.77;;;5.70;;
56043;SDS011;41912;51.022;3.664;2023-05-21T01:40:44;11.40;;;5.70;;
56043;SDS011;41912;51.022;3.664;2023-05-21T01:43:11;11.18;;;6.32;;
56043;SDS011;41912;51.022;3.664;2023-05-21T01:45:38;9.15;;;5.88;;
56043;SDS011;41912;51.022;3.664;2023-05-21T01:48:06;10.27;;;5.90;;
56043;SDS011;41912;51.022;3.664;2023-05-21T01:50:34;13.82;;;7.10;;
56043;SDS011;41912;51.022;3.664;2023-05-21T01:53:01;13.27;;;6.20;;
56043;SDS011;41912;51.022;3.664;2023-05-21T01:55:29;9.57;;;5.68;;
56043;SDS011;41912;51.022;3.664;2023-05-21T01:57:56;8.00;;;5.82;;
56043;SDS011;41912;51.022;3.664;2023-05-21T02:00:24;11.60;;;5.78;;
56043;SDS011;41912;51.022;3.664;2023-05-21T02:02:52;9.85;;;5.97;;
56043;SDS011;41912;51.022;3.664;2023-05-21T02:05:18;10.48;;;5.90;;
56043;SDS011;41912;51.022;3.664;2023-05-21T02:07:44;10.15;;;5.55;;
56043;SDS011;41912;51.022;3.664;2023-05-21T02:10:10;10.55;;;6.10;;
56043;SDS011;41912;51.022;3.664;2023-05-21T02:12:36;15.65;;;6.10;;
56043;SDS011;41912;51.022;3.664;2023-05-21T02:15:02;12.50;;;6.18;;
56043;SDS011;41912;51.022;3.664;2023-05-21T02:17:28;7.97;;;5.53;;
56043;SDS011;41912;51.022;3.664;2023-05-21T02:20:01;8.18;;;6.10;;
56043;SDS011;41912;51.022;3.664;2023-05-21T02:22:36;10.18;;;6.10;;
56043;SDS011;41912;51.022;3.664;2023-05-21T02:25:03;10.32;;;6.15;;
56043;SDS011;41912;51.022;3.664;2023-05-21T02:27:31;11.73;;;6.03;;
56043;SDS011;41912;51.022;3.664;2023-05-21T02:29:59;9.50;;;6.63;;
56043;SDS011;41912;51.022;3.664;2023-05-21T02:32:25;11.10;;;6.20;;
56043;SDS011;41912;51.022;3.664;2023-05-21T02:34:50;8.63;;;6.43;;
56043;SDS011;41912;51.022;3.664;2023-05-21T02:37:17;12.80;;;5.88;;
56043;SDS011;41912;51.022;3.664;2023-05-21T02:39:43;9.77;;;6.20;;
56043;SDS011;41912;51.022;3.664;2023-05-21T02:42:09;12.00;;;6.57;;
56043;SDS011;41912;51.022;3.664;2023-05-21T02:44:35;19.77;;;6.70;;
56043;SDS011;41912;51.022;3.664;2023-05-21T02:47:01;9.55;;;6.03;;
56043;SDS011;41912;51.022;3.664;2023-05-21T02:49:26;7.70;;;6.25;;
56043;SDS011;41912;51.022;3.664;2023-05-21T02:51:52;10.57;;;6.13;;
56043;SDS011;41912;51.022;3.664;2023-05-21T02:54:17;15.55;;;6.25;;
56043;SDS011;41912;51.022;3.664;2023-05-21T02:56:43;11.10;;;6.07;;
56043;SDS011;41912;51.022;3.664;2023-05-21T02:59:09;13.15;;;6.95;;
56043;SDS011;41912;51.022;3.664;2023-05-21T03:01:35;10.48;;;7.00;;
56043;SDS011;41912;51.022;3.664;2023-05-21T03:04:00;8.50;;;6.25;;
56043;SDS011;41912;51.022;3.664;2023-05-21T03:06:26;8.43;;;6.50;;
56043;SDS011;41912;51.022;3.664;2023-05-21T03:08:51;14.48;;;6.55;;
56043;SDS011;41912;51.022;3.664;2023-05-21T03:11:17;8.35;;;6.28;;
56043;SDS011;41912;51.022;3.664;2023-05-21T03:13:43;9.93;;;6.35;;
56043;SDS011;41912;51.022;3.664;2023-05-21T03:16:09;11.68;;;6.38;;
56043;SDS011;41912;51.022;3.664;2023-05-21T03:18:35;9.73;;;6.25;;
56043;SDS011;41912;51.022;3.664;2023-05-21T03:21:00;11.07;;;6.28;;
56043;SDS011;41912;51.022;3.664;2023-05-21T03:23:26;9.43;;;6.45;;
56043;SDS011;41912;51.022;3.664;2023-05-21T03:25:52;9.10;;;6.75;;
56043;SDS011;41912;51.022;3.664;2023-05-21T03:28:17;8.88;;;6.35;;
56043;SDS011;41912;51.022;3.664;2023-05-21T03:30:43;8.98;;;6.57;;
56043;SDS011;41912;51.022;3.664;2023-05-21T03:33:13;11.50;;;6.55;;
56043;SDS011;41912;51.022;3.664;2023-05-21T03:35:39;8.85;;;6.47;;
56043;SDS011;41912;51.022;3.664;2023-05-21T03:38:05;9.70;;;6.20;;
56043;SDS011;41912;51.022;3.664;2023-05-21T03:40:30;8.43;;;6.25;;
56043;SDS011;41912;51.022;3.664;2023-05-21T03:42:56;9.32;;;6.65;;
56043;SDS011;41912;51.022;3.664;2023-05-21T03:45:21;10.60;;;7.15;;
56043;SDS011;41912;51.022;3.664;2023-05-21T03:47:47;7.95;;;6.35;;
56043;SDS011;41912;51.022;3.664;2023-05-21T03:50:13;9.80;;;6.22;;
56043;SDS011;41912;51.022;3.664;2023-05-21T03:52:39;11.75;;;6.43;;
56043;SDS011;41912;51.022;3.664;2023-05-21T03:55:05;9.50;;;6.05;;
56043;SDS011;41912;51.022;3.664;2023-05-21T03:57:31;10.52;;;6.30;;
56043;SDS011;41912;51.022;3.664;2023-05-21T03:59:56;13.38;;;6.35;;
56043;SDS011;41912;51.022;3.664;2023-05-21T04:02:24;7.88;;;5.88;;
56043;SDS011;41912;51.022;3.664;2023-05-21T04:04:51;9.38;;;6.63;;
56043;SDS011;41912;51.022;3.664;2023-05-21T04:07:17;7.75;;;5.65;;
56043;SDS011;41912;51.022;3.664;2023-05-21T04:09:43;12.90;;;6.53;;
56043;SDS011;41912;51.022;3.664;2023-05-21T04:12:09;13.23;;;6.47;;
56043;SDS011;41912;51.022;3.664;2023-05-21T04:14:35;8.82;;;6.60;;
56043;SDS011;41912;51.022;3.664;2023-05-21T04:17:01;13.88;;;7.15;;
56043;SDS011;41912;51.022;3.664;2023-05-21T04:19:31;11.15;;;6.30;;
56043;SDS011;41912;51.022;3.664;2023-05-21T04:21:56;8.13;;;6.35;;
56043;SDS011;41912;51.022;3.664;2023-05-21T04:24:25;12.57;;;6.30;;
56043;SDS011;41912;51.022;3.664;2023-05-21T04:26:51;9.68;;;6.43;;
56043;SDS011;41912;51.022;3.664;2023-05-21T04:29:16;8.60;;;6.28;;
56043;SDS011;41912;51.022;3.664;2023-05-21T04:31:46;11.88;;;7.43;;
56043;SDS011;41912;51.022;3.664;2023-05-21T04:34:13;10.82;;;7.03;;
56043;SDS011;41912;51.022;3.664;2023-05-21T04:36:41;10.95;;;6.78;;
56043;SDS011;41912;51.022;3.664;2023-05-21T04:39:09;11.57;;;6.88;;
56043;SDS011;41912;51.022;3.664;2023-05-21T04:41:38;10.32;;;7.32;;
56043;SDS011;41912;51.022;3.664;2023-05-21T04:44:07;9.82;;;6.68;;
56043;SDS011;41912;51.022;3.664;2023-05-21T04:46:34;9.35;;;6.78;;
56043;SDS011;41912;51.022;3.664;2023-05-21T04:49:03;10.82;;;7.10;;
56043;SDS011;41912;51.022;3.664;2023-05-21T04:51:29;10.48;;;7.03;;
56043;SDS011;41912;51.022;3.664;2023-05-21T04:53:55;15.68;;;7.93;;
56043;SDS011;41912;51.022;3.664;2023-05-21T04:56:22;10.65;;;7.43;;
56043;SDS011;41912;51.022;3.664;2023-05-21T04:58:51;10.32;;;7.68;;
56043;SDS011;41912;51.022;3.664;2023-05-21T05:01:18;17.10;;;9.10;;
56043;SDS011;41912;51.022;3.664;2023-05-21T05:03:47;14.52;;;7.85;;
56043;SDS011;41912;51.022;3.664;2023-05-21T05:06:13;12.70;;;8.07;;
56043;SDS011;41912;51.022;3.664;2023-05-21T05:08:39;15.20;;;8.98;;
56043;SDS011;41912;51.022;3.664;2023-05-21T05:11:06;12.95;;;7.57;;
56043;SDS011;41912;51.022;3.664;2023-05-21T05:13:32;13.65;;;8.52;;
56043;SDS011;41912;51.022;3.664;2023-05-21T05:15:58;12.90;;;8.45;;
56043;SDS011;41912;51.022;3.664;2023-05-21T05:18:24;13.23;;;8.82;;
56043;SDS011;41912;51.022;3.664;2023-05-21T05:20:50;14.93;;;9.68;;
56043;SDS011;41912;51.022;3.664;2023-05-21T05:23:16;15.15;;;9.23;;
56043;SDS011;41912;51.022;3.664;2023-05-21T05:25:41;15.10;;;9.73;;
56043;SDS011;41912;51.022;3.664;2023-05-21T05:28:07;13.65;;;9.88;;
56043;SDS011;41912;51.022;3.664;2023-05-21T05:30:32;16.33;;;10.02;;
56043;SDS011;41912;51.022;3.664;2023-05-21T05:32:59;15.50;;;10.48;;
56043;SDS011;41912;51.022;3.664;2023-05-21T05:35:25;12.57;;;9.40;;
56043;SDS011;41912;51.022;3.664;2023-05-21T05:37:50;17.35;;;10.82;;
56043;SDS011;41912;51.022;3.664;2023-05-21T05:40:16;14.07;;;10.05;;
56043;SDS011;41912;51.022;3.664;2023-05-21T05:42:42;18.00;;;10.57;;
56043;SDS011;41912;51.022;3.664;2023-05-21T05:45:07;15.73;;;9.88;;
56043;SDS011;41912;51.022;3.664;2023-05-21T05:47:33;15.63;;;10.45;;
56043;SDS011;41912;51.022;3.664;2023-05-21T05:49:59;19.70;;;10.98;;
56043;SDS011;41912;51.022;3.664;2023-05-21T05:52:25;17.58;;;10.80;;
56043;SDS011;41912;51.022;3.664;2023-05-21T05:54:50;15.30;;;10.40;;
56043;SDS011;41912;51.022;3.664;2023-05-21T05:57:16;16.55;;;10.73;;
56043;SDS011;41912;51.022;3.664;2023-05-21T05:59:41;14.05;;;10.32;;
56043;SDS011;41912;51.022;3.664;2023-05-21T06:02:07;20.48;;;11.23;;
56043;SDS011;41912;51.022;3.664;2023-05-21T06:04:33;20.75;;;10.38;;
56043;SDS011;41912;51.022;3.664;2023-05-21T06:06:58;16.25;;;11.38;;
56043;SDS011;41912;51.022;3.664;2023-05-21T06:09:24;17.15;;;10.82;;
56043;SDS011;41912;51.022;3.664;2023-05-21T06:11:50;14.00;;;10.27;;
56043;SDS011;41912;51.022;3.664;2023-05-21T06:14:16;18.98;;;9.75;;
56043;SDS011;41912;51.022;3.664;2023-05-21T06:16:41;13.85;;;9.68;;
56043;SDS011;41912;51.022;3.664;2023-05-21T06:19:07;16.85;;;10.05;;
56043;SDS011;41912;51.022;3.664;2023-05-21T06:21:33;14.55;;;9.82;;
56043;SDS011;41912;51.022;3.664;2023-05-21T06:23:58;16.63;;;9.88;;
56043;SDS011;41912;51.022;3.664;2023-05-21T06:26:24;15.75;;;9.05;;
56043;SDS011;41912;51.022;3.664;2023-05-21T06:28:50;13.82;;;9.15;;
56043;SDS011;41912;51.022;3.664;2023-05-21T06:31:15;14.63;;;8.57;;
56043;SDS011;41912;51.022;3.664;2023-05-21T06:33:41;17.70;;;9.05;;
56043;SDS011;41912;51.022;3.664;2023-05-21T06:36:07;15.75;;;8.80;;
56043;SDS011;41912;51.022;3.664;2023-05-21T06:38:33;14.13;;;9.23;;
56043;SDS011;41912;51.022;3.664;2023-05-21T06:40:58;13.30;;;8.40;;
56043;SDS011;41912;51.022;3.664;2023-05-21T06:43:24;15.30;;;9.30;;
56043;SDS011;41912;51.022;3.664;2023-05-21T06:45:50;19.45;;;8.68;;
56043;SDS011;41912;51.022;3.664;2023-05-21T06:48:15;13.45;;;8.05;;
56043;SDS011;41912;51.022;3.664;2023-05-21T06:50:41;14.30;;;9.05;;
56043;SDS011;41912;51.022;3.664;2023-05-21T06:53:07;12.23;;;7.78;;
56043;SDS011;41912;51.022;3.664;2023-05-21T06:55:33;12.60;;;7.93;;
56043;SDS011;41912;51.022;3.664;2023-05-21T06:57:59;14.23;;;7.80;;
56043;SDS011;41912;51.022;3.664;2023-05-21T07:00:25;12.23;;;8.65;;
56043;SDS011;41912;51.022;3.664;2023-05-21T07:02:50;14.18;;;9.75;;
56043;SDS011;41912;51.022;3.664;2023-05-21T07:05:16;15.10;;;9.35;;
56043;SDS011;41912;51.022;3.664;2023-05-21T07:07:42;18.35;;;9.35;;
56043;SDS011;41912;51.022;3.664;2023-05-21T07:10:08;15.40;;;8.15;;
56043;SDS011;41912;51.022;3.664;2023-05-21T07:12:34;16.60;;;8.95;;
56043;SDS011;41912;51.022;3.664;2023-05-21T07:14:59;16.20;;;7.40;;
56043;SDS011;41912;51.022;3.664;2023-05-21T07:17:25;13.30;;;7.78;;
56043;SDS011;41912;51.022;3.664;2023-05-21T07:19:51;14.60;;;7.72;;
56043;SDS011;41912;51.022;3.664;2023-05-21T07:22:16;15.20;;;7.88;;
56043;SDS011;41912;51.022;3.664;2023-05-21T07:24:42;15.77;;;6.97;;
56043;SDS011;41912;51.022;3.664;2023-05-21T07:27:07;13.38;;;7.60;;
56043;SDS011;41912;51.022;3.664;2023-05-21T07:29:33;16.80;;;7.72;;
56043;SDS011;41912;51.022;3.664;2023-05-21T07:31:58;16.73;;;7.78;;
56043;SDS011;41912;51.022;3.664;2023-05-21T07:34:24;11.75;;;7.57;;
56043;SDS011;41912;51.022;3.664;2023-05-21T07:36:50;13.02;;;6.65;;
56043;SDS011;41912;51.022;3.664;2023-05-21T07:39:16;11.18;;;6.65;;
56043;SDS011;41912;51.022;3.664;2023-05-21T07:41:42;11.80;;;7.03;;
56043;SDS011;41912;51.022;3.664;2023-05-21T07:44:08;11.35;;;6.95;;
56043;SDS011;41912;51.022;3.664;2023-05-21T07:46:34;15.02;;;6.68;;
56043;SDS011;41912;51.022;3.664;2023-05-21T07:49:00;12.57;;;7.15;;
56043;SDS011;41912;51.022;3.664;2023-05-21T07:51:26;11.80;;;6.90;;
56043;SDS011;41912;51.022;3.664;2023-05-21T07:53:51;12.40;;;7.22;;
56043;SDS011;41912;51.022;3.664;2023-05-21T07:56:17;10.70;;;6.50;;
56043;SDS011;41912;51.022;3.664;2023-05-21T07:58:42;10.48;;;6.53;;
56043;SDS011;41912;51.022;3.664;2023-05-21T08:01:10;13.57;;;6.85;;
56043;SDS011;41912;51.022;3.664;2023-05-21T08:03:36;11.38;;;6.60;;
56043;SDS011;41912;51.022;3.664;2023-05-21T08:06:01;12.52;;;6.32;;
56043;SDS011;41912;51.022;3.664;2023-05-21T08:08:27;13.35;;;6.40;;
56043;SDS011;41912;51.022;3.664;2023-05-21T08:10:53;14.95;;;6.95;;
56043;SDS011;41912;51.022;3.664;2023-05-21T08:13:20;13.73;;;7.07;;
56043;SDS011;41912;51.022;3.664;2023-05-21T08:15:46;9.55;;;6.47;;
56043;SDS011;41912;51.022;3.664;2023-05-21T08:18:12;11.77;;;6.13;;
56043;SDS011;41912;51.022;3.664;2023-05-21T08:20:38;9.40;;;6.60;;
56043;SDS011;41912;51.022;3.664;2023-05-21T08:23:03;10.13;;;6.55;;
56043;SDS011;41912;51.022;3.664;2023-05-21T08:25:29;17.10;;;7.00;;
56043;SDS011;41912;51.022;3.664;2023-05-21T08:27:55;8.18;;;5.85;;
56043;SDS011;41912;51.022;3.664;2023-05-21T08:30:21;11.27;;;6.95;;
56043;SDS011;41912;51.022;3.664;2023-05-21T08:32:47;10.73;;;6.22;;
56043;SDS011;41912;51.022;3.664;2023-05-21T08:35:13;13.82;;;6.82;;
56043;SDS011;41912;51.022;3.664;2023-05-21T08:37:38;10.07;;;6.25;;
56043;SDS011;41912;51.022;3.664;2023-05-21T08:40:04;10.70;;;5.88;;
56043;SDS011;41912;51.022;3.664;2023-05-21T08:42:49;9.40;;;5.70;;
56043;SDS011;41912;51.022;3.664;2023-05-21T08:45:22;9.52;;;6.15;;
56043;SDS011;41912;51.022;3.664;2023-05-21T08:47:53;9.27;;;6.55;;
56043;SDS011;41912;51.022;3.664;2023-05-21T08:50:21;11.98;;;7.13;;
56043;SDS011;41912;51.022;3.664;2023-05-21T08:52:50;9.48;;;6.40;;
56043;SDS011;41912;51.022;3.664;2023-05-21T08:55:16;9.13;;;6.07;;
56043;SDS011;41912;51.022;3.664;2023-05-21T08:57:43;10.35;;;5.75;;
56043;SDS011;41912;51.022;3.664;2023-05-21T09:00:09;8.52;;;5.90;;
56043;SDS011;41912;51.022;3.664;2023-05-21T09:02:36;9.13;;;6.07;;
56043;SDS011;41912;51.022;3.664;2023-05-21T09:05:04;11.05;;;5.68;;
56043;SDS011;41912;51.022;3.664;2023-05-21T09:07:33;9.98;;;4.90;;
56043;SDS011;41912;51.022;3.664;2023-05-21T09:10:14;10.02;;;5.80;;
56043;SDS011;41912;51.022;3.664;2023-05-21T09:12:42;11.43;;;5.65;;
56043;SDS011;41912;51.022;3.664;2023-05-21T09:15:08;10.35;;;6.35;;
56043;SDS011;41912;51.022;3.664;2023-05-21T09:17:34;11.48;;;6.43;;
56043;SDS011;41912;51.022;3.664;2023-05-21T09:22:46;12.55;;;6.60;;
56043;SDS011;41912;51.022;3.664;2023-05-21T09:25:14;11.77;;;6.80;;
56043;SDS011;41912;51.022;3.664;2023-05-21T09:27:41;10.00;;;6.35;;
56043;SDS011;41912;51.022;3.664;2023-05-21T09:30:10;12.07;;;7.03;;
56043;SDS011;41912;51.022;3.664;2023-05-21T09:32:38;11.98;;;7.25;;
56043;SDS011;41912;51.022;3.664;2023-05-21T09:35:07;16.17;;;8.48;;
56043;SDS011;41912;51.022;3.664;2023-05-21T09:37:40;12.70;;;5.70;;
56043;SDS011;41912;51.022;3.664;2023-05-21T09:42:39;11.05;;;7.00;;
56043;SDS011;41912;51.022;3.664;2023-05-21T09:45:10;10.18;;;6.75;;
56043;SDS011;41912;51.022;3.664;2023-05-21T09:47:39;8.57;;;6.18;;
56043;SDS011;41912;51.022;3.664;2023-05-21T09:50:07;13.00;;;7.50;;
56043;SDS011;41912;51.022;3.664;2023-05-21T09:52:36;12.88;;;8.23;;
56043;SDS011;41912;51.022;3.664;2023-05-21T09:55:03;12.30;;;7.95;;
56043;SDS011;41912;51.022;3.664;2023-05-21T09:57:43;11.05;;;7.93;;
56043;SDS011;41912;51.022;3.664;2023-05-21T10:00:19;11.65;;;7.22;;
56043;SDS011;41912;51.022;3.664;2023-05-21T10:02:55;12.30;;;7.68;;
56043;SDS011;41912;51.022;3.664;2023-05-21T10:05:24;14.82;;;8.60;;
56043;SDS011;41912;51.022;3.664;2023-05-21T10:07:52;12.00;;;8.20;;
56043;SDS011;41912;51.022;3.664;2023-05-21T10:10:20;11.85;;;8.55;;
56043;SDS011;41912;51.022;3.664;2023-05-21T10:13:08;13.30;;;8.00;;
56043;SDS011;41912;51.022;3.664;2023-05-21T10:15:43;13.98;;;9.02;;
56043;SDS011;41912;51.022;3.664;2023-05-21T10:18:12;16.55;;;9.82;;
56043;SDS011;41912;51.022;3.664;2023-05-21T10:20:38;12.30;;;8.32;;
56043;SDS011;41912;51.022;3.664;2023-05-21T10:23:04;15.63;;;8.80;;
56043;SDS011;41912;51.022;3.664;2023-05-21T10:25:30;14.73;;;9.15;;
56043;SDS011;41912;51.022;3.664;2023-05-21T10:27:56;15.20;;;9.27;;
56043;SDS011;41912;51.022;3.664;2023-05-21T10:30:22;15.57;;;8.60;;
56043;SDS011;41912;51.022;3.664;2023-05-21T10:32:48;13.48;;;8.07;;
56043;SDS011;41912;51.022;3.664;2023-05-21T10:35:14;11.98;;;8.52;;
56043;SDS011;41912;51.022;3.664;2023-05-21T10:37:42;15.15;;;8.00;;
56043;SDS011;41912;51.022;3.664;2023-05-21T10:40:09;14.60;;;9.07;;
56043;SDS011;41912;51.022;3.664;2023-05-21T10:56:29;13.18;;;9.35;;
56043;SDS011;41912;51.022;3.664;2023-05-21T10:59:06;13.25;;;8.85;;
56043;SDS011;41912;51.022;3.664;2023-05-21T11:01:36;11.85;;;9.05;;
56043;SDS011;41912;51.022;3.664;2023-05-21T11:04:03;14.30;;;9.13;;
56043;SDS011;41912;51.022;3.664;2023-05-21T11:06:32;13.00;;;8.90;;
56043;SDS011;41912;51.022;3.664;2023-05-21T11:09:09;14.30;;;9.70;;
56043;SDS011;41912;51.022;3.664;2023-05-21T11:11:43;13.35;;;9.02;;
56043;SDS011;41912;51.022;3.664;2023-05-21T11:17:03;15.88;;;10.32;;
56043;SDS011;41912;51.022;3.664;2023-05-21T11:22:04;14.38;;;9.40;;
56043;SDS011;41912;51.022;3.664;2023-05-21T11:24:43;14.77;;;7.65;;
56043;SDS011;41912;51.022;3.664;2023-05-21T11:27:09;13.77;;;9.10;;
56043;SDS011;41912;51.022;3.664;2023-05-21T11:29:40;15.10;;;8.90;;
56043;SDS011;41912;51.022;3.664;2023-05-21T11:32:08;16.52;;;9.60;;
56043;SDS011;41912;51.022;3.664;2023-05-21T11:34:44;14.40;;;8.93;;
56043;SDS011;41912;51.022;3.664;2023-05-21T11:39:50;23.02;;;9.15;;
56043;SDS011;41912;51.022;3.664;2023-05-21T11:42:26;14.23;;;9.38;;
56043;SDS011;41912;51.022;3.664;2023-05-21T11:44:54;13.73;;;10.02;;
56043;SDS011;41912;51.022;3.664;2023-05-21T11:47:24;18.73;;;9.57;;
56043;SDS011;41912;51.022;3.664;2023-05-21T11:49:50;18.67;;;9.77;;
56043;SDS011;41912;51.022;3.664;2023-05-21T11:52:16;14.52;;;9.77;;
56043;SDS011;41912;51.022;3.664;2023-05-21T11:54:53;17.52;;;9.68;;
56043;SDS011;41912;51.022;3.664;2023-05-21T11:57:20;12.55;;;9.55;;
56043;SDS011;41912;51.022;3.664;2023-05-21T11:59:49;15.07;;;9.30;;
56043;SDS011;41912;51.022;3.664;2023-05-21T12:02:18;12.85;;;8.85;;
56043;SDS011;41912;51.022;3.664;2023-05-21T12:04:45;13.45;;;9.27;;
56043;SDS011;41912;51.022;3.664;2023-05-21T12:07:12;12.73;;;8.70;;
56043;SDS011;41912;51.022;3.664;2023-05-21T12:12:09;21.33;;;9.82;;
56043;SDS011;41912;51.022;3.664;2023-05-21T12:14:37;14.90;;;9.77;;
56043;SDS011;41912;51.022;3.664;2023-05-21T12:17:03;13.38;;;9.52;;
56043;SDS011;41912;51.022;3.664;2023-05-21T12:19:33;12.48;;;9.15;;
56043;SDS011;41912;51.022;3.664;2023-05-21T12:22:01;11.93;;;8.95;;
56043;SDS011;41912;51.022;3.664;2023-05-21T12:24:33;11.55;;;8.38;;
56043;SDS011;41912;51.022;3.664;2023-05-21T12:27:00;12.65;;;9.45;;
56043;SDS011;41912;51.022;3.664;2023-05-21T12:29:28;16.45;;;8.85;;
56043;SDS011;41912;51.022;3.664;2023-05-21T12:31:58;13.48;;;9.25;;
56043;SDS011;41912;51.022;3.664;2023-05-21T12:37:26;12.80;;;8.52;;
56043;SDS011;41912;51.022;3.664;2023-05-21T12:39:57;15.48;;;9.30;;
56043;SDS011;41912;51.022;3.664;2023-05-21T12:42:24;17.40;;;8.90;;
56043;SDS011;41912;51.022;3.664;2023-05-21T12:45:00;15.82;;;8.70;;
56043;SDS011;41912;51.022;3.664;2023-05-21T12:47:33;17.13;;;9.43;;
56043;SDS011;41912;51.022;3.664;2023-05-21T12:49:59;13.70;;;7.82;;
56043;SDS011;41912;51.022;3.664;2023-05-21T12:52:26;15.05;;;8.23;;
56043;SDS011;41912;51.022;3.664;2023-05-21T12:54:53;16.10;;;8.18;;
56043;SDS011;41912;51.022;3.664;2023-05-21T12:57:24;18.00;;;7.68;;
56043;SDS011;41912;51.022;3.664;2023-05-21T12:59:58;17.15;;;8.95;;
56043;SDS011;41912;51.022;3.664;2023-05-21T13:02:29;16.70;;;8.40;;
56043;SDS011;41912;51.022;3.664;2023-05-21T13:07:26;15.82;;;8.15;;
56043;SDS011;41912;51.022;3.664;2023-05-21T13:09:53;17.38;;;7.82;;
56043;SDS011;41912;51.022;3.664;2023-05-21T13:12:23;18.70;;;8.65;;
56043;SDS011;41912;51.022;3.664;2023-05-21T13:14:52;14.55;;;7.43;;
56043;SDS011;41912;51.022;3.664;2023-05-21T13:17:19;18.95;;;8.50;;
56043;SDS011;41912;51.022;3.664;2023-05-21T13:22:33;13.85;;;7.22;;
56043;SDS011;41912;51.022;3.664;2023-05-21T13:25:02;17.77;;;7.20;;
56043;SDS011;41912;51.022;3.664;2023-05-21T13:27:29;16.02;;;6.85;;
56043;SDS011;41912;51.022;3.664;2023-05-21T13:29:55;20.42;;;8.23;;
56043;SDS011;41912;51.022;3.664;2023-05-21T13:32:21;18.65;;;7.13;;
56043;SDS011;41912;51.022;3.664;2023-05-21T13:34:46;16.40;;;7.05;;
56043;SDS011;41912;51.022;3.664;2023-05-21T13:37:12;16.55;;;7.55;;
56043;SDS011;41912;51.022;3.664;2023-05-21T13:39:38;16.27;;;7.13;;
56043;SDS011;41912;51.022;3.664;2023-05-21T13:42:04;12.80;;;6.93;;
56043;SDS011;41912;51.022;3.664;2023-05-21T13:44:30;14.20;;;6.97;;
56043;SDS011;41912;51.022;3.664;2023-05-21T13:47:06;14.18;;;6.72;;
56043;SDS011;41912;51.022;3.664;2023-05-21T13:51:58;18.75;;;7.40;;
56043;SDS011;41912;51.022;3.664;2023-05-21T13:54:24;17.77;;;7.35;;
56043;SDS011;41912;51.022;3.664;2023-05-21T13:56:51;21.83;;;7.38;;
56043;SDS011;41912;51.022;3.664;2023-05-21T13:59:16;14.18;;;6.75;;
56043;SDS011;41912;51.022;3.664;2023-05-21T14:01:42;19.15;;;7.13;;
56043;SDS011;41912;51.022;3.664;2023-05-21T14:04:11;16.02;;;6.18;;
56043;SDS011;41912;51.022;3.664;2023-05-21T14:06:37;14.82;;;7.57;;
56043;SDS011;41912;51.022;3.664;2023-05-21T14:09:03;14.27;;;6.47;;
56043;SDS011;41912;51.022;3.664;2023-05-21T14:11:29;13.75;;;7.20;;
56043;SDS011;41912;51.022;3.664;2023-05-21T14:13:56;16.40;;;6.10;;
56043;SDS011;41912;51.022;3.664;2023-05-21T14:16:22;12.80;;;6.18;;
56043;SDS011;41912;51.022;3.664;2023-05-21T14:18:51;22.10;;;8.63;;
56043;SDS011;41912;51.022;3.664;2023-05-21T14:21:17;13.30;;;6.97;;
56043;SDS011;41912;51.022;3.664;2023-05-21T14:23:42;11.18;;;6.45;;
56043;SDS011;41912;51.022;3.664;2023-05-21T14:26:08;14.88;;;7.75;;
56043;SDS011;41912;51.022;3.664;2023-05-21T14:28:34;15.00;;;7.03;;
56043;SDS011;41912;51.022;3.664;2023-05-21T14:30:59;19.77;;;7.43;;
56043;SDS011;41912;51.022;3.664;2023-05-21T14:33:25;15.75;;;6.60;;
56043;SDS011;41912;51.022;3.664;2023-05-21T14:35:50;17.00;;;7.35;;
56043;SDS011;41912;51.022;3.664;2023-05-21T14:38:16;14.27;;;6.13;;
56043;SDS011;41912;51.022;3.664;2023-05-21T14:40:42;20.05;;;7.03;;
56043;SDS011;41912;51.022;3.664;2023-05-21T14:43:07;13.27;;;6.72;;
56043;SDS011;41912;51.022;3.664;2023-05-21T14:45:33;16.83;;;6.38;;
56043;SDS011;41912;51.022;3.664;2023-05-21T14:48:02;15.43;;;7.35;;
56043;SDS011;41912;51.022;3.664;2023-05-21T14:50:32;14.82;;;6.30;;
56043;SDS011;41912;51.022;3.664;2023-05-21T14:53:02;18.55;;;7.70;;
56043;SDS011;41912;51.022;3.664;2023-05-21T14:55:29;16.20;;;6.55;;
56043;SDS011;41912;51.022;3.664;2023-05-21T14:57:57;19.00;;;6.88;;
56043;SDS011;41912;51.022;3.664;2023-05-21T15:00:23;12.05;;;7.35;;
56043;SDS011;41912;51.022;3.664;2023-05-21T15:02:48;13.82;;;6.35;;
56043;SDS011;41912;51.022;3.664;2023-05-21T15:05:14;11.43;;;6.40;;
56043;SDS011;41912;51.022;3.664;2023-05-21T15:07:39;14.27;;;7.45;;
56043;SDS011;41912;51.022;3.664;2023-05-21T15:10:05;16.63;;;6.80;;
56043;SDS011;41912;51.022;3.664;2023-05-21T15:12:31;15.68;;;6.95;;
56043;SDS011;41912;51.022;3.664;2023-05-21T15:14:57;15.02;;;7.88;;
56043;SDS011;41912;51.022;3.664;2023-05-21T15:17:23;17.60;;;6.97;;
56043;SDS011;41912;51.022;3.664;2023-05-21T15:19:48;13.27;;;5.95;;